sensor_id;sensor_type;location;lat;lon;timestamp;temperature;humidity
16485;DHT22;8353;47.856;12.344;2023-03-01T00:00:22;4.20;99.90
16485;DHT22;8353;47.856;12.344;2023-03-01T00:02:52;4.20;99.90
16485;DHT22;8353;47.856;12.344;2023-03-01T00:05:23;4.30;99.90
16485;DHT22;8353;47.856;12.344;2023-03-01T00:07:53;4.30;99.90
16485;DHT22;8353;47.856;12.344;2023-03-01T00:10:24;4.30;99.90
16485;DHT22;8353;47.856;12.344;2023-03-01T00:12:57;4.20;99.90
16485;DHT22;8353;47.856;12.344;2023-03-01T00:15:27;4.40;99.90
16485;DHT22;8353;47.856;12.344;2023-03-01T00:17:58;4.30;99.90
16485;DHT22;8353;47.856;12.344;2023-03-01T00:20:28;4.30;99.90
16485;DHT22;8353;47.856;12.344;2023-03-01T00:22:59;4.30;99.90
16485;DHT22;8353;47.856;12.344;2023-03-01T00:25:29;4.30;99.90
16485;DHT22;8353;47.856;12.344;2023-03-01T00:28:01;4.30;99.90
16485;DHT22;8353;47.856;12.344;2023-03-01T00:30:36;4.20;99.90
16485;DHT22;8353;47.856;12.344;2023-03-01T00:33:07;4.10;99.90
16485;DHT22;8353;47.856;12.344;2023-03-01T00:35:37;4.30;99.90
16485;DHT22;8353;47.856;12.344;2023-03-01T00:38:08;4.40;99.90
16485;DHT22;8353;47.856;12.344;2023-03-01T00:40:39;4.40;99.90
16485;DHT22;8353;47.856;12.344;2023-03-01T00:43:11;4.20;99.90
16485;DHT22;8353;47.856;12.344;2023-03-01T00:45:42;4.10;99.90
16485;DHT22;8353;47.856;12.344;2023-03-01T00:48:12;4.10;99.90
16485;DHT22;8353;47.856;12.344;2023-03-01T00:50:43;4.20;99.90
16485;DHT22;8353;47.856;12.344;2023-03-01T00:53:13;4.00;99.90
16485;DHT22;8353;47.856;12.344;2023-03-01T00:55:43;4.00;99.90
16485;DHT22;8353;47.856;12.344;2023-03-01T00:58:15;4.10;99.90
16485;DHT22;8353;47.856;12.344;2023-03-01T01:00:45;4.10;99.90
16485;DHT22;8353;47.856;12.344;2023-03-01T01:03:16;4.20;99.90
16485;DHT22;8353;47.856;12.344;2023-03-01T01:05:47;4.20;99.90
16485;DHT22;8353;47.856;12.344;2023-03-01T01:08:17;4.00;99.90
16485;DHT22;8353;47.856;12.344;2023-03-01T01:10:48;4.00;99.90
16485;DHT22;8353;47.856;12.344;2023-03-01T01:13:20;4.10;99.90
16485;DHT22;8353;47.856;12.344;2023-03-01T01:15:51;4.10;99.90
16485;DHT22;8353;47.856;12.344;2023-03-01T01:18:21;4.20;99.90
16485;DHT22;8353;47.856;12.344;2023-03-01T01:20:52;4.20;99.90
16485;DHT22;8353;47.856;12.344;2023-03-01T01:23:23;4.20;99.90
16485;DHT22;8353;47.856;12.344;2023-03-01T01:25:53;4.10;99.90
16485;DHT22;8353;47.856;12.344;2023-03-01T01:28:25;4.00;99.90
16485;DHT22;8353;47.856;12.344;2023-03-01T01:30:55;4.00;99.90
16485;DHT22;8353;47.856;12.344;2023-03-01T01:33:26;4.20;99.90
16485;DHT22;8353;47.856;12.344;2023-03-01T01:35:57;4.30;99.90
16485;DHT22;8353;47.856;12.344;2023-03-01T01:38:28;4.20;99.90
16485;DHT22;8353;47.856;12.344;2023-03-01T01:40:59;4.20;99.90
16485;DHT22;8353;47.856;12.344;2023-03-01T01:43:35;4.20;99.90
16485;DHT22;8353;47.856;12.344;2023-03-01T01:46:10;4.40;99.90
16485;DHT22;8353;47.856;12.344;2023-03-01T01:48:47;4.30;99.90
16485;DHT22;8353;47.856;12.344;2023-03-01T01:51:22;4.10;99.90
16485;DHT22;8353;47.856;12.344;2023-03-01T01:53:57;4.00;99.90
16485;DHT22;8353;47.856;12.344;2023-03-01T01:56:29;4.00;99.90
16485;DHT22;8353;47.856;12.344;2023-03-01T01:59:01;3.90;99.90
16485;DHT22;8353;47.856;12.344;2023-03-01T02:01:32;3.70;99.90
16485;DHT22;8353;47.856;12.344;2023-03-01T02:04:03;3.60;99.90
16485;DHT22;8353;47.856;12.344;2023-03-01T02:06:38;3.70;99.90
16485;DHT22;8353;47.856;12.344;2023-03-01T02:09:13;3.80;99.90
16485;DHT22;8353;47.856;12.344;2023-03-01T02:11:44;4.10;99.90
16485;DHT22;8353;47.856;12.344;2023-03-01T02:14:16;4.00;99.90
16485;DHT22;8353;47.856;12.344;2023-03-01T02:16:47;3.90;99.90
16485;DHT22;8353;47.856;12.344;2023-03-01T02:19:29;3.70;99.90
16485;DHT22;8353;47.856;12.344;2023-03-01T02:22:07;3.60;99.90
16485;DHT22;8353;47.856;12.344;2023-03-01T02:24:45;3.70;99.90
16485;DHT22;8353;47.856;12.344;2023-03-01T02:27:20;3.90;99.90
16485;DHT22;8353;47.856;12.344;2023-03-01T02:29:55;3.80;99.90
16485;DHT22;8353;47.856;12.344;2023-03-01T02:32:26;3.60;99.90
16485;DHT22;8353;47.856;12.344;2023-03-01T02:34:56;3.40;99.90
16485;DHT22;8353;47.856;12.344;2023-03-01T02:37:27;3.40;99.90
16485;DHT22;8353;47.856;12.344;2023-03-01T02:40:03;3.50;99.90
16485;DHT22;8353;47.856;12.344;2023-03-01T02:42:36;3.60;99.90
16485;DHT22;8353;47.856;12.344;2023-03-01T02:45:15;3.60;99.90
16485;DHT22;8353;47.856;12.344;2023-03-01T02:47:45;3.70;99.90
16485;DHT22;8353;47.856;12.344;2023-03-01T02:50:32;3.70;99.90
16485;DHT22;8353;47.856;12.344;2023-03-01T02:53:08;3.60;99.90
16485;DHT22;8353;47.856;12.344;2023-03-01T02:55:41;3.70;99.90
16485;DHT22;8353;47.856;12.344;2023-03-01T02:58:12;3.90;99.90
16485;DHT22;8353;47.856;12.344;2023-03-01T03:00:45;4.00;99.90
16485;DHT22;8353;47.856;12.344;2023-03-01T03:03:19;4.10;99.90
16485;DHT22;8353;47.856;12.344;2023-03-01T03:05:50;4.10;99.90
16485;DHT22;8353;47.856;12.344;2023-03-01T03:08:20;4.20;99.90
16485;DHT22;8353;47.856;12.344;2023-03-01T03:10:52;4.20;99.90
16485;DHT22;8353;47.856;12.344;2023-03-01T03:13:23;4.10;99.90
16485;DHT22;8353;47.856;12.344;2023-03-01T03:15:59;3.90;99.90
16485;DHT22;8353;47.856;12.344;2023-03-01T03:18:29;3.80;99.90
16485;DHT22;8353;47.856;12.344;2023-03-01T03:21:00;3.90;99.90
16485;DHT22;8353;47.856;12.344;2023-03-01T03:23:31;4.00;99.90
16485;DHT22;8353;47.856;12.344;2023-03-01T03:26:01;3.90;99.90
16485;DHT22;8353;47.856;12.344;2023-03-01T03:28:34;3.90;99.90
16485;DHT22;8353;47.856;12.344;2023-03-01T03:31:07;4.00;99.90
16485;DHT22;8353;47.856;12.344;2023-03-01T03:33:38;4.00;99.90
16485;DHT22;8353;47.856;12.344;2023-03-01T03:36:09;4.00;99.90
16485;DHT22;8353;47.856;12.344;2023-03-01T03:38:41;3.90;99.90
16485;DHT22;8353;47.856;12.344;2023-03-01T03:41:12;4.00;99.90
16485;DHT22;8353;47.856;12.344;2023-03-01T03:43:43;4.10;99.90
16485;DHT22;8353;47.856;12.344;2023-03-01T03:46:15;4.00;99.90
16485;DHT22;8353;47.856;12.344;2023-03-01T03:48:46;4.00;99.90
16485;DHT22;8353;47.856;12.344;2023-03-01T03:51:17;4.10;99.90
16485;DHT22;8353;47.856;12.344;2023-03-01T03:53:47;4.20;99.90
16485;DHT22;8353;47.856;12.344;2023-03-01T03:56:17;4.30;99.90
16485;DHT22;8353;47.856;12.344;2023-03-01T03:58:48;4.40;99.90
16485;DHT22;8353;47.856;12.344;2023-03-01T04:01:20;4.40;99.90
16485;DHT22;8353;47.856;12.344;2023-03-01T04:03:50;4.50;99.90
16485;DHT22;8353;47.856;12.344;2023-03-01T04:06:23;4.50;99.90
16485;DHT22;8353;47.856;12.344;2023-03-01T04:08:53;4.40;99.90
16485;DHT22;8353;47.856;12.344;2023-03-01T04:11:29;4.40;99.90
16485;DHT22;8353;47.856;12.344;2023-03-01T04:14:00;4.40;99.90
16485;DHT22;8353;47.856;12.344;2023-03-01T04:16:32;4.50;99.90
16485;DHT22;8353;47.856;12.344;2023-03-01T04:19:03;4.30;99.90
16485;DHT22;8353;47.856;12.344;2023-03-01T04:21:35;4.30;99.90
16485;DHT22;8353;47.856;12.344;2023-03-01T04:24:06;4.30;99.90
16485;DHT22;8353;47.856;12.344;2023-03-01T04:26:38;4.20;99.90
16485;DHT22;8353;47.856;12.344;2023-03-01T04:29:09;4.30;99.90
16485;DHT22;8353;47.856;12.344;2023-03-01T04:31:40;4.40;99.90
16485;DHT22;8353;47.856;12.344;2023-03-01T04:34:10;4.20;99.90
16485;DHT22;8353;47.856;12.344;2023-03-01T04:36:43;4.10;99.90
16485;DHT22;8353;47.856;12.344;2023-03-01T04:39:13;4.00;99.90
16485;DHT22;8353;47.856;12.344;2023-03-01T04:41:43;4.00;99.90
16485;DHT22;8353;47.856;12.344;2023-03-01T04:44:14;3.80;99.90
16485;DHT22;8353;47.856;12.344;2023-03-01T04:46:48;3.70;99.90
16485;DHT22;8353;47.856;12.344;2023-03-01T04:49:19;3.80;99.90
16485;DHT22;8353;47.856;12.344;2023-03-01T04:51:50;4.00;99.90
16485;DHT22;8353;47.856;12.344;2023-03-01T04:54:20;3.80;99.90
16485;DHT22;8353;47.856;12.344;2023-03-01T04:56:50;3.90;99.90
16485;DHT22;8353;47.856;12.344;2023-03-01T04:59:21;3.90;99.90
16485;DHT22;8353;47.856;12.344;2023-03-01T05:01:54;3.90;99.90
16485;DHT22;8353;47.856;12.344;2023-03-01T05:04:25;3.90;99.90
16485;DHT22;8353;47.856;12.344;2023-03-01T05:06:56;3.90;99.90
16485;DHT22;8353;47.856;12.344;2023-03-01T05:09:28;3.90;99.90
16485;DHT22;8353;47.856;12.344;2023-03-01T05:11:58;3.70;99.90
16485;DHT22;8353;47.856;12.344;2023-03-01T05:14:29;3.80;99.90
16485;DHT22;8353;47.856;12.344;2023-03-01T05:17:01;3.90;99.90
16485;DHT22;8353;47.856;12.344;2023-03-01T05:19:33;3.80;99.90
16485;DHT22;8353;47.856;12.344;2023-03-01T05:22:04;3.90;99.90
16485;DHT22;8353;47.856;12.344;2023-03-01T05:24:35;3.90;99.90
16485;DHT22;8353;47.856;12.344;2023-03-01T05:27:08;3.80;99.90
16485;DHT22;8353;47.856;12.344;2023-03-01T05:29:38;3.70;99.90
16485;DHT22;8353;47.856;12.344;2023-03-01T05:32:11;3.80;99.90
16485;DHT22;8353;47.856;12.344;2023-03-01T05:34:44;3.70;99.90
16485;DHT22;8353;47.856;12.344;2023-03-01T05:37:15;3.80;99.90
16485;DHT22;8353;47.856;12.344;2023-03-01T05:39:46;3.80;99.90
16485;DHT22;8353;47.856;12.344;2023-03-01T05:42:19;3.70;99.90
16485;DHT22;8353;47.856;12.344;2023-03-01T05:44:50;3.70;99.90
16485;DHT22;8353;47.856;12.344;2023-03-01T05:47:21;3.80;99.90
16485;DHT22;8353;47.856;12.344;2023-03-01T05:49:52;3.70;99.90
16485;DHT22;8353;47.856;12.344;2023-03-01T05:52:22;3.70;99.90
16485;DHT22;8353;47.856;12.344;2023-03-01T05:54:52;3.60;99.90
16485;DHT22;8353;47.856;12.344;2023-03-01T05:57:22;3.70;99.90
16485;DHT22;8353;47.856;12.344;2023-03-01T05:59:53;3.60;99.90
16485;DHT22;8353;47.856;12.344;2023-03-01T06:02:25;3.30;99.90
16485;DHT22;8353;47.856;12.344;2023-03-01T06:04:56;3.20;99.90
16485;DHT22;8353;47.856;12.344;2023-03-01T06:07:26;3.20;99.90
16485;DHT22;8353;47.856;12.344;2023-03-01T06:09:57;3.30;99.90
16485;DHT22;8353;47.856;12.344;2023-03-01T06:12:30;3.50;99.90
16485;DHT22;8353;47.856;12.344;2023-03-01T06:15:02;3.50;99.90
16485;DHT22;8353;47.856;12.344;2023-03-01T06:17:34;3.60;99.90
16485;DHT22;8353;47.856;12.344;2023-03-01T06:20:09;3.50;99.90
16485;DHT22;8353;47.856;12.344;2023-03-01T06:22:40;3.40;99.90
16485;DHT22;8353;47.856;12.344;2023-03-01T06:25:12;3.20;99.90
16485;DHT22;8353;47.856;12.344;2023-03-01T06:27:43;3.10;99.90
16485;DHT22;8353;47.856;12.344;2023-03-01T06:30:15;3.20;99.90
16485;DHT22;8353;47.856;12.344;2023-03-01T06:32:47;3.30;99.90
16485;DHT22;8353;47.856;12.344;2023-03-01T06:35:19;3.10;99.90
16485;DHT22;8353;47.856;12.344;2023-03-01T06:37:49;3.10;99.90
16485;DHT22;8353;47.856;12.344;2023-03-01T06:40:20;3.10;99.90
16485;DHT22;8353;47.856;12.344;2023-03-01T06:42:51;3.10;99.90
16485;DHT22;8353;47.856;12.344;2023-03-01T06:45:22;3.10;99.90
16485;DHT22;8353;47.856;12.344;2023-03-01T06:48:01;3.10;99.90
16485;DHT22;8353;47.856;12.344;2023-03-01T06:50:32;3.10;99.90
16485;DHT22;8353;47.856;12.344;2023-03-01T06:53:02;3.20;99.90
16485;DHT22;8353;47.856;12.344;2023-03-01T06:55:33;3.10;99.90
16485;DHT22;8353;47.856;12.344;2023-03-01T06:58:03;2.90;99.90
16485;DHT22;8353;47.856;12.344;2023-03-01T07:00:34;2.90;99.90
16485;DHT22;8353;47.856;12.344;2023-03-01T07:03:08;3.00;99.90
16485;DHT22;8353;47.856;12.344;2023-03-01T07:05:38;2.80;99.90
16485;DHT22;8353;47.856;12.344;2023-03-01T07:08:10;3.00;99.90
16485;DHT22;8353;47.856;12.344;2023-03-01T07:10:41;3.00;99.90
16485;DHT22;8353;47.856;12.344;2023-03-01T07:13:11;3.10;99.90
16485;DHT22;8353;47.856;12.344;2023-03-01T07:15:42;3.30;99.90
16485;DHT22;8353;47.856;12.344;2023-03-01T07:18:13;3.30;99.90
16485;DHT22;8353;47.856;12.344;2023-03-01T07:20:44;3.30;99.90
16485;DHT22;8353;47.856;12.344;2023-03-01T07:23:14;3.20;99.90
16485;DHT22;8353;47.856;12.344;2023-03-01T07:25:51;3.30;99.90
16485;DHT22;8353;47.856;12.344;2023-03-01T07:28:22;3.50;99.90
16485;DHT22;8353;47.856;12.344;2023-03-01T07:30:53;3.50;99.90
16485;DHT22;8353;47.856;12.344;2023-03-01T07:33:24;3.50;99.90
16485;DHT22;8353;47.856;12.344;2023-03-01T07:35:59;3.40;99.90
16485;DHT22;8353;47.856;12.344;2023-03-01T07:38:30;3.50;99.90
16485;DHT22;8353;47.856;12.344;2023-03-01T07:41:02;3.50;99.90
16485;DHT22;8353;47.856;12.344;2023-03-01T07:43:33;3.60;99.90
16485;DHT22;8353;47.856;12.344;2023-03-01T07:46:04;3.40;99.90
16485;DHT22;8353;47.856;12.344;2023-03-01T07:48:37;3.40;99.90
16485;DHT22;8353;47.856;12.344;2023-03-01T07:51:07;3.50;99.90
16485;DHT22;8353;47.856;12.344;2023-03-01T07:53:38;3.50;99.90
16485;DHT22;8353;47.856;12.344;2023-03-01T07:56:10;3.60;99.90
16485;DHT22;8353;47.856;12.344;2023-03-01T07:58:42;3.40;99.90
16485;DHT22;8353;47.856;12.344;2023-03-01T08:01:15;3.30;99.90
16485;DHT22;8353;47.856;12.344;2023-03-01T08:03:47;3.10;99.90
16485;DHT22;8353;47.856;12.344;2023-03-01T08:06:18;3.00;99.90
16485;DHT22;8353;47.856;12.344;2023-03-01T08:08:48;3.10;99.90
16485;DHT22;8353;47.856;12.344;2023-03-01T08:11:19;3.00;99.90
16485;DHT22;8353;47.856;12.344;2023-03-01T08:13:50;3.10;99.90
16485;DHT22;8353;47.856;12.344;2023-03-01T08:16:20;3.30;99.90
16485;DHT22;8353;47.856;12.344;2023-03-01T08:18:52;3.40;99.90
16485;DHT22;8353;47.856;12.344;2023-03-01T08:21:25;3.30;99.90
16485;DHT22;8353;47.856;12.344;2023-03-01T08:23:55;3.10;99.90
16485;DHT22;8353;47.856;12.344;2023-03-01T08:26:25;3.10;99.90
16485;DHT22;8353;47.856;12.344;2023-03-01T08:28:56;3.10;99.90
16485;DHT22;8353;47.856;12.344;2023-03-01T08:31:28;3.30;99.90
16485;DHT22;8353;47.856;12.344;2023-03-01T08:34:03;3.30;99.90
16485;DHT22;8353;47.856;12.344;2023-03-01T08:36:36;3.40;99.90
16485;DHT22;8353;47.856;12.344;2023-03-01T08:39:08;3.60;99.90
16485;DHT22;8353;47.856;12.344;2023-03-01T08:41:39;3.80;99.90
16485;DHT22;8353;47.856;12.344;2023-03-01T08:44:11;3.70;99.90
16485;DHT22;8353;47.856;12.344;2023-03-01T08:46:42;3.80;99.90
16485;DHT22;8353;47.856;12.344;2023-03-01T08:49:17;3.90;99.90
16485;DHT22;8353;47.856;12.344;2023-03-01T08:51:47;3.90;99.90
16485;DHT22;8353;47.856;12.344;2023-03-01T08:54:20;4.10;99.90
16485;DHT22;8353;47.856;12.344;2023-03-01T08:56:51;4.30;99.90
16485;DHT22;8353;47.856;12.344;2023-03-01T08:59:21;4.30;99.90
16485;DHT22;8353;47.856;12.344;2023-03-01T09:01:52;4.30;99.90
16485;DHT22;8353;47.856;12.344;2023-03-01T09:04:23;4.20;99.90
16485;DHT22;8353;47.856;12.344;2023-03-01T09:06:54;4.20;99.90
16485;DHT22;8353;47.856;12.344;2023-03-01T09:09:24;4.30;99.90
16485;DHT22;8353;47.856;12.344;2023-03-01T09:11:55;4.40;99.90
16485;DHT22;8353;47.856;12.344;2023-03-01T09:14:26;4.60;99.90
16485;DHT22;8353;47.856;12.344;2023-03-01T09:16:56;4.70;99.90
16485;DHT22;8353;47.856;12.344;2023-03-01T09:19:29;4.60;99.90
16485;DHT22;8353;47.856;12.344;2023-03-01T09:21:59;4.60;99.90
16485;DHT22;8353;47.856;12.344;2023-03-01T09:24:30;4.60;99.90
16485;DHT22;8353;47.856;12.344;2023-03-01T09:27:00;4.60;99.90
16485;DHT22;8353;47.856;12.344;2023-03-01T09:29:31;4.60;99.90
16485;DHT22;8353;47.856;12.344;2023-03-01T09:32:02;4.70;99.90
16485;DHT22;8353;47.856;12.344;2023-03-01T09:34:33;4.80;99.90
16485;DHT22;8353;47.856;12.344;2023-03-01T09:37:24;4.90;99.90
16485;DHT22;8353;47.856;12.344;2023-03-01T09:39:55;5.10;99.90
16485;DHT22;8353;47.856;12.344;2023-03-01T09:42:26;5.00;99.90
16485;DHT22;8353;47.856;12.344;2023-03-01T09:45:00;4.90;99.90
16485;DHT22;8353;47.856;12.344;2023-03-01T09:47:35;5.00;99.90
16485;DHT22;8353;47.856;12.344;2023-03-01T09:50:13;5.10;99.90
16485;DHT22;8353;47.856;12.344;2023-03-01T09:52:50;5.00;99.90
16485;DHT22;8353;47.856;12.344;2023-03-01T09:55:30;4.90;99.90
16485;DHT22;8353;47.856;12.344;2023-03-01T09:58:15;5.00;99.90
16485;DHT22;8353;47.856;12.344;2023-03-01T10:00:50;5.30;99.90
16485;DHT22;8353;47.856;12.344;2023-03-01T10:03:26;5.40;99.90
16485;DHT22;8353;47.856;12.344;2023-03-01T10:06:04;5.30;99.90
16485;DHT22;8353;47.856;12.344;2023-03-01T10:08:38;5.30;99.90
16485;DHT22;8353;47.856;12.344;2023-03-01T10:11:20;5.30;99.90
16485;DHT22;8353;47.856;12.344;2023-03-01T10:13:55;5.30;99.90
16485;DHT22;8353;47.856;12.344;2023-03-01T10:16:34;5.30;99.90
16485;DHT22;8353;47.856;12.344;2023-03-01T10:19:12;5.30;99.90
16485;DHT22;8353;47.856;12.344;2023-03-01T10:21:46;5.40;99.90
16485;DHT22;8353;47.856;12.344;2023-03-01T10:24:19;5.40;99.90
16485;DHT22;8353;47.856;12.344;2023-03-01T10:26:55;5.20;99.90
16485;DHT22;8353;47.856;12.344;2023-03-01T10:29:29;5.40;99.90
16485;DHT22;8353;47.856;12.344;2023-03-01T10:32:03;5.40;99.90
16485;DHT22;8353;47.856;12.344;2023-03-01T10:34:36;5.30;99.90
16485;DHT22;8353;47.856;12.344;2023-03-01T10:37:13;5.30;99.90
16485;DHT22;8353;47.856;12.344;2023-03-01T10:39:56;5.50;99.90
16485;DHT22;8353;47.856;12.344;2023-03-01T10:42:29;5.70;99.90
16485;DHT22;8353;47.856;12.344;2023-03-01T10:45:16;5.90;99.90
16485;DHT22;8353;47.856;12.344;2023-03-01T10:47:47;5.90;99.90
16485;DHT22;8353;47.856;12.344;2023-03-01T10:50:33;5.80;99.90
16485;DHT22;8353;47.856;12.344;2023-03-01T10:53:21;5.90;99.90
16485;DHT22;8353;47.856;12.344;2023-03-01T10:55:58;5.70;99.90
16485;DHT22;8353;47.856;12.344;2023-03-01T10:58:29;5.50;99.90
16485;DHT22;8353;47.856;12.344;2023-03-01T11:01:02;5.60;99.90
16485;DHT22;8353;47.856;12.344;2023-03-01T11:03:35;5.50;99.90
16485;DHT22;8353;47.856;12.344;2023-03-01T11:06:20;5.50;99.90
16485;DHT22;8353;47.856;12.344;2023-03-01T11:08:52;5.60;99.90
16485;DHT22;8353;47.856;12.344;2023-03-01T11:11:29;5.60;99.90
16485;DHT22;8353;47.856;12.344;2023-03-01T11:14:01;5.60;99.90
16485;DHT22;8353;47.856;12.344;2023-03-01T11:16:35;5.50;99.90
16485;DHT22;8353;47.856;12.344;2023-03-01T11:19:20;5.50;99.90
16485;DHT22;8353;47.856;12.344;2023-03-01T11:21:59;5.40;99.90
16485;DHT22;8353;47.856;12.344;2023-03-01T11:24:39;5.20;99.90
16485;DHT22;8353;47.856;12.344;2023-03-01T11:27:17;5.50;99.90
16485;DHT22;8353;47.856;12.344;2023-03-01T11:29:51;5.60;99.90
16485;DHT22;8353;47.856;12.344;2023-03-01T11:32:25;5.70;99.90
16485;DHT22;8353;47.856;12.344;2023-03-01T11:34:59;5.80;99.90
16485;DHT22;8353;47.856;12.344;2023-03-01T11:37:36;5.90;99.90
16485;DHT22;8353;47.856;12.344;2023-03-01T11:40:16;5.80;99.90
16485;DHT22;8353;47.856;12.344;2023-03-01T11:42:59;5.90;99.90
16485;DHT22;8353;47.856;12.344;2023-03-01T11:45:41;5.90;99.90
16485;DHT22;8353;47.856;12.344;2023-03-01T11:48:32;5.60;99.90
16485;DHT22;8353;47.856;12.344;2023-03-01T11:51:09;5.60;99.90
16485;DHT22;8353;47.856;12.344;2023-03-01T11:54:00;5.70;99.90
16485;DHT22;8353;47.856;12.344;2023-03-01T11:56:38;5.90;99.90
16485;DHT22;8353;47.856;12.344;2023-03-01T12:02:32;6.00;99.90
16485;DHT22;8353;47.856;12.344;2023-03-01T12:08:08;5.50;99.90
16485;DHT22;8353;47.856;12.344;2023-03-01T12:10:48;5.80;99.90
16485;DHT22;8353;47.856;12.344;2023-03-01T12:16:59;5.70;99.90
16485;DHT22;8353;47.856;12.344;2023-03-01T12:22:30;6.10;99.90
16485;DHT22;8353;47.856;12.344;2023-03-01T12:25:18;6.10;99.90
16485;DHT22;8353;47.856;12.344;2023-03-01T12:28:08;6.20;99.90
16485;DHT22;8353;47.856;12.344;2023-03-01T12:30:56;6.40;99.90
16485;DHT22;8353;47.856;12.344;2023-03-01T12:33:39;6.30;99.90
16485;DHT22;8353;47.856;12.344;2023-03-01T12:36:26;6.50;99.90
16485;DHT22;8353;47.856;12.344;2023-03-01T12:39:11;6.60;99.90
16485;DHT22;8353;47.856;12.344;2023-03-01T12:41:52;7.00;99.90
16485;DHT22;8353;47.856;12.344;2023-03-01T12:44:41;7.30;99.90
16485;DHT22;8353;47.856;12.344;2023-03-01T12:47:30;7.30;99.90
16485;DHT22;8353;47.856;12.344;2023-03-01T12:50:05;7.20;99.90
16485;DHT22;8353;47.856;12.344;2023-03-01T12:52:44;7.00;99.90
16485;DHT22;8353;47.856;12.344;2023-03-01T12:55:25;7.00;99.90
16485;DHT22;8353;47.856;12.344;2023-03-01T12:58:05;7.10;99.90
16485;DHT22;8353;47.856;12.344;2023-03-01T13:00:45;7.10;99.90
16485;DHT22;8353;47.856;12.344;2023-03-01T13:03:28;7.30;99.90
16485;DHT22;8353;47.856;12.344;2023-03-01T13:06:07;7.30;99.90
16485;DHT22;8353;47.856;12.344;2023-03-01T13:08:43;7.30;99.90
16485;DHT22;8353;47.856;12.344;2023-03-01T13:11:19;7.40;99.90
16485;DHT22;8353;47.856;12.344;2023-03-01T13:13:50;7.70;99.90
16485;DHT22;8353;47.856;12.344;2023-03-01T13:16:40;7.60;99.90
16485;DHT22;8353;47.856;12.344;2023-03-01T13:19:17;7.60;99.90
16485;DHT22;8353;47.856;12.344;2023-03-01T13:21:50;7.40;99.90
16485;DHT22;8353;47.856;12.344;2023-03-01T13:24:25;7.40;99.90
16485;DHT22;8353;47.856;12.344;2023-03-01T13:27:22;7.30;99.90
16485;DHT22;8353;47.856;12.344;2023-03-01T13:29:54;7.70;99.90
16485;DHT22;8353;47.856;12.344;2023-03-01T13:32:26;7.60;99.90
16485;DHT22;8353;47.856;12.344;2023-03-01T13:35:00;7.60;99.90
16485;DHT22;8353;47.856;12.344;2023-03-01T13:37:35;7.70;99.90
16485;DHT22;8353;47.856;12.344;2023-03-01T13:43:28;7.90;99.90
16485;DHT22;8353;47.856;12.344;2023-03-01T13:46:00;7.70;99.90
16485;DHT22;8353;47.856;12.344;2023-03-01T13:48:33;7.70;99.90
16485;DHT22;8353;47.856;12.344;2023-03-01T13:51:06;7.80;99.90
16485;DHT22;8353;47.856;12.344;2023-03-01T13:53:41;8.00;99.90
16485;DHT22;8353;47.856;12.344;2023-03-01T13:56:15;8.10;99.90
16485;DHT22;8353;47.856;12.344;2023-03-01T13:58:50;8.20;99.90
16485;DHT22;8353;47.856;12.344;2023-03-01T14:01:26;8.30;99.90
16485;DHT22;8353;47.856;12.344;2023-03-01T14:03:58;8.40;99.90
16485;DHT22;8353;47.856;12.344;2023-03-01T14:06:32;8.10;99.90
16485;DHT22;8353;47.856;12.344;2023-03-01T14:09:10;7.70;99.90
16485;DHT22;8353;47.856;12.344;2023-03-01T14:12:06;7.70;99.90
16485;DHT22;8353;47.856;12.344;2023-03-01T14:14:45;7.80;99.90
16485;DHT22;8353;47.856;12.344;2023-03-01T14:17:37;7.80;99.90
16485;DHT22;8353;47.856;12.344;2023-03-01T14:20:17;7.60;99.90
16485;DHT22;8353;47.856;12.344;2023-03-01T14:22:50;7.60;99.90
16485;DHT22;8353;47.856;12.344;2023-03-01T14:25:27;7.70;99.90
16485;DHT22;8353;47.856;12.344;2023-03-01T14:28:10;7.80;99.90
16485;DHT22;8353;47.856;12.344;2023-03-01T14:30:44;8.20;99.90
16485;DHT22;8353;47.856;12.344;2023-03-01T14:33:22;8.20;99.90
16485;DHT22;8353;47.856;12.344;2023-03-01T14:35:54;8.20;99.90
16485;DHT22;8353;47.856;12.344;2023-03-01T14:38:32;8.20;99.90
16485;DHT22;8353;47.856;12.344;2023-03-01T14:41:10;8.30;99.90
16485;DHT22;8353;47.856;12.344;2023-03-01T14:43:45;8.40;99.90
16485;DHT22;8353;47.856;12.344;2023-03-01T14:46:19;8.30;99.90
16485;DHT22;8353;47.856;12.344;2023-03-01T14:48:51;8.40;99.90
16485;DHT22;8353;47.856;12.344;2023-03-01T14:51:23;8.40;99.90
16485;DHT22;8353;47.856;12.344;2023-03-01T14:53:55;8.40;99.90
16485;DHT22;8353;47.856;12.344;2023-03-01T14:56:26;8.50;99.90
16485;DHT22;8353;47.856;12.344;2023-03-01T14:58:58;8.50;99.90
16485;DHT22;8353;47.856;12.344;2023-03-01T15:01:29;8.50;99.90
16485;DHT22;8353;47.856;12.344;2023-03-01T15:04:00;8.40;99.90
16485;DHT22;8353;47.856;12.344;2023-03-01T15:06:32;8.30;99.90
16485;DHT22;8353;47.856;12.344;2023-03-01T15:09:03;8.40;99.90
16485;DHT22;8353;47.856;12.344;2023-03-01T15:11:34;8.40;99.90
16485;DHT22;8353;47.856;12.344;2023-03-01T15:14:27;8.40;99.90
16485;DHT22;8353;47.856;12.344;2023-03-01T15:16:59;8.50;99.90
16485;DHT22;8353;47.856;12.344;2023-03-01T15:19:30;8.40;99.90
16485;DHT22;8353;47.856;12.344;2023-03-01T15:22:14;8.40;99.90
16485;DHT22;8353;47.856;12.344;2023-03-01T15:24:48;8.50;99.90
16485;DHT22;8353;47.856;12.344;2023-03-01T15:27:21;8.50;99.90
16485;DHT22;8353;47.856;12.344;2023-03-01T15:29:55;8.50;99.90
16485;DHT22;8353;47.856;12.344;2023-03-01T15:32:29;8.60;99.90
16485;DHT22;8353;47.856;12.344;2023-03-01T15:35:00;8.60;99.90
16485;DHT22;8353;47.856;12.344;2023-03-01T15:37:46;8.60;99.90
16485;DHT22;8353;47.856;12.344;2023-03-01T15:40:21;8.60;99.90
16485;DHT22;8353;47.856;12.344;2023-03-01T15:42:54;8.60;99.90
16485;DHT22;8353;47.856;12.344;2023-03-01T15:45:27;8.50;99.90
16485;DHT22;8353;47.856;12.344;2023-03-01T15:47:59;8.50;99.90
16485;DHT22;8353;47.856;12.344;2023-03-01T15:50:35;8.50;99.90
16485;DHT22;8353;47.856;12.344;2023-03-01T15:53:12;8.50;99.90
16485;DHT22;8353;47.856;12.344;2023-03-01T15:55:45;8.50;99.90
16485;DHT22;8353;47.856;12.344;2023-03-01T15:58:21;8.60;99.90
16485;DHT22;8353;47.856;12.344;2023-03-01T16:00:52;8.60;99.90
16485;DHT22;8353;47.856;12.344;2023-03-01T16:03:24;8.60;99.90
16485;DHT22;8353;47.856;12.344;2023-03-01T16:05:55;8.60;99.90
16485;DHT22;8353;47.856;12.344;2023-03-01T16:08:25;8.60;99.90
16485;DHT22;8353;47.856;12.344;2023-03-01T16:10:58;8.50;99.90
16485;DHT22;8353;47.856;12.344;2023-03-01T16:13:28;8.50;99.90
16485;DHT22;8353;47.856;12.344;2023-03-01T16:16:00;8.50;99.90
16485;DHT22;8353;47.856;12.344;2023-03-01T16:18:33;8.30;99.90
16485;DHT22;8353;47.856;12.344;2023-03-01T16:21:04;8.30;99.90
16485;DHT22;8353;47.856;12.344;2023-03-01T16:23:35;8.30;99.90
16485;DHT22;8353;47.856;12.344;2023-03-01T16:26:06;8.10;99.90
16485;DHT22;8353;47.856;12.344;2023-03-01T16:28:38;8.10;99.90
16485;DHT22;8353;47.856;12.344;2023-03-01T16:31:09;8.10;99.90
16485;DHT22;8353;47.856;12.344;2023-03-01T16:33:39;8.00;99.90
16485;DHT22;8353;47.856;12.344;2023-03-01T16:36:12;8.00;99.90
16485;DHT22;8353;47.856;12.344;2023-03-01T16:38:43;7.90;99.90
16485;DHT22;8353;47.856;12.344;2023-03-01T16:41:17;7.90;99.90